createdAt,value
2022-12-18T00:02:11.975Z,51.10
2022-12-18T00:04:38.345Z,55.67
2022-12-18T00:07:04.695Z,46.72
2022-12-18T00:09:39.527Z,48.35
2022-12-18T00:14:45.474Z,46.22
2022-12-18T00:17:11.971Z,52.40
2022-12-18T00:19:38.371Z,51.55
2022-12-18T00:22:04.736Z,49.88
2022-12-18T00:24:31.323Z,54.00
2022-12-18T00:26:57.715Z,49.53
2022-12-18T00:29:24.090Z,47.65
2022-12-18T00:31:50.520Z,49.70
2022-12-18T00:34:17.010Z,49.20
2022-12-18T00:36:43.402Z,51.92
2022-12-18T00:39:11.723Z,51.53
2022-12-18T00:41:56.716Z,53.70
2022-12-18T00:44:23.160Z,49.25
2022-12-18T00:46:49.725Z,50.70
2022-12-18T00:49:18.785Z,49.67
2022-12-18T00:51:46.132Z,53.38
2022-12-18T00:54:12.567Z,45.47
2022-12-18T00:56:48.186Z,46.58
2022-12-18T00:59:16.170Z,52.80
2022-12-18T01:01:43.105Z,44.65
2022-12-18T01:04:09.602Z,45.22
2022-12-18T01:06:35.963Z,44.90
2022-12-18T01:09:03.095Z,47.60
2022-12-18T01:11:29.519Z,41.08
2022-12-18T01:13:56.283Z,48.47
2022-12-18T01:16:23.731Z,45.10
2022-12-18T01:18:54.473Z,44.28
2022-12-18T01:21:21.738Z,43.92
2022-12-18T01:23:51.634Z,44.70
2022-12-18T01:26:18.028Z,42.45
2022-12-18T01:28:45.280Z,42.55
2022-12-18T01:31:21.102Z,41.72
2022-12-18T01:33:48.993Z,36.72
2022-12-18T01:36:19.260Z,44.73
2022-12-18T01:38:46.778Z,41.72
2022-12-18T01:41:14.176Z,37.60
2022-12-18T01:44:26.653Z,45.38
2022-12-18T01:46:53.022Z,41.28
2022-12-18T01:49:19.369Z,39.85
2022-12-18T01:51:45.714Z,36.42
2022-12-18T01:54:12.081Z,37.95
2022-12-18T01:56:38.413Z,37.25
2022-12-18T01:59:09.971Z,39.65
2022-12-18T02:01:38.872Z,37.30
2022-12-18T02:04:26.503Z,41.58
2022-12-18T02:06:58.136Z,39.92
2022-12-18T02:09:32.883Z,37.13
2022-12-18T02:12:14.170Z,40.47
2022-12-18T02:14:54.143Z,39.17
2022-12-18T02:17:24.173Z,34.83
2022-12-18T02:20:09.320Z,35.80
2022-12-18T02:22:38.576Z,38.47
2022-12-18T02:25:14.346Z,37.25
2022-12-18T02:27:44.761Z,38.15
2022-12-18T02:30:11.480Z,38.22
2022-12-18T02:32:43.244Z,33.72
2022-12-18T02:35:15.813Z,40.03
2022-12-18T02:37:45.669Z,40.30
2022-12-18T02:40:14.985Z,45.90
2022-12-18T02:42:41.397Z,41.70
2022-12-18T02:45:08.307Z,38.75
2022-12-18T02:47:38.749Z,40.75
2022-12-18T02:50:14.440Z,40.40
2022-12-18T02:52:50.392Z,38.22
2022-12-18T02:55:27.356Z,41.80
2022-12-18T02:58:19.710Z,42.47
2022-12-18T03:00:59.817Z,40.55
2022-12-18T03:03:33.676Z,38.95
2022-12-18T03:06:05.373Z,38.65
2022-12-18T03:08:40.041Z,33.90
2022-12-18T03:11:09.866Z,37.50
2022-12-18T03:13:56.983Z,37.80
2022-12-18T03:16:27.265Z,36.42
2022-12-18T03:18:58.337Z,32.88
2022-12-18T03:21:37.662Z,34.75
2022-12-18T03:24:08.775Z,42.40
2022-12-18T03:26:41.119Z,35.58
2022-12-18T03:29:13.547Z,33.25
2022-12-18T03:31:44.165Z,31.98
2022-12-18T03:34:16.122Z,39.50
2022-12-18T03:36:42.470Z,34.10
2022-12-18T03:39:08.838Z,32.15
2022-12-18T03:41:46.132Z,32.10
2022-12-18T03:44:19.495Z,31.05
2022-12-18T03:47:04.598Z,29.52
2022-12-18T03:49:59.919Z,34.67
2022-12-18T03:52:37.341Z,33.38
2022-12-18T03:55:06.032Z,27.10
2022-12-18T03:57:33.974Z,25.25
2022-12-18T04:00:14.238Z,27.00
2022-12-18T04:02:45.756Z,28.25
2022-12-18T04:05:14.183Z,30.20
2022-12-18T04:07:41.536Z,28.13
2022-12-18T04:10:09.993Z,29.65
2022-12-18T04:12:38.255Z,27.40
2022-12-18T04:15:05.687Z,27.10
2022-12-18T04:17:32.113Z,26.55
2022-12-18T04:19:58.434Z,27.58
2022-12-18T04:22:24.776Z,25.23
2022-12-18T04:24:51.173Z,21.17
2022-12-18T04:27:17.745Z,21.90
2022-12-18T04:29:44.106Z,28.75
2022-12-18T04:32:10.582Z,22.38
2022-12-18T04:34:36.922Z,26.90
2022-12-18T04:37:03.612Z,32.20
2022-12-18T04:39:30.122Z,27.60
2022-12-18T04:41:56.458Z,25.05
2022-12-18T04:44:23.549Z,23.35
2022-12-18T04:46:50.139Z,24.10
2022-12-18T04:49:16.723Z,24.45
2022-12-18T04:51:43.101Z,27.50
2022-12-18T04:54:09.430Z,26.38
2022-12-18T04:56:35.837Z,21.13
2022-12-18T04:59:02.165Z,26.52
2022-12-18T05:01:34.280Z,23.33
2022-12-18T05:04:02.201Z,22.65
2022-12-18T05:06:28.668Z,27.55
2022-12-18T05:08:55.042Z,25.30
2022-12-18T05:11:21.520Z,23.20
2022-12-18T05:13:47.918Z,19.98
2022-12-18T05:16:15.094Z,20.23
2022-12-18T05:18:42.302Z,25.70
2022-12-18T05:21:08.750Z,19.73
2022-12-18T05:23:35.786Z,24.23
2022-12-18T05:26:05.516Z,24.40
2022-12-18T05:28:33.485Z,23.00
2022-12-18T05:31:03.076Z,21.90
2022-12-18T05:33:32.417Z,18.65
2022-12-18T05:36:06.370Z,27.63
2022-12-18T05:38:34.252Z,20.60
2022-12-18T05:41:00.758Z,25.00
2022-12-18T05:43:28.180Z,22.33
2022-12-18T05:45:55.388Z,21.35
2022-12-18T05:48:22.461Z,18.23
2022-12-18T05:50:50.518Z,19.42
2022-12-18T05:53:20.145Z,24.05
2022-12-18T05:55:47.165Z,24.33
2022-12-18T05:58:14.635Z,19.65
2022-12-18T06:00:44.480Z,24.35
2022-12-18T06:03:12.060Z,22.15
2022-12-18T06:05:40.840Z,20.23
2022-12-18T06:08:07.939Z,21.50
2022-12-18T06:10:34.374Z,18.80
2022-12-18T06:13:01.277Z,21.52
2022-12-18T06:15:27.752Z,17.95
2022-12-18T06:17:54.193Z,17.80
2022-12-18T06:20:21.040Z,18.67
2022-12-18T06:22:47.455Z,23.75
2022-12-18T06:25:13.825Z,19.98
2022-12-18T06:27:40.258Z,23.20
2022-12-18T06:30:09.440Z,20.90
2022-12-18T06:32:35.967Z,21.40
2022-12-18T06:35:02.332Z,17.77
2022-12-18T06:37:29.165Z,19.30
2022-12-18T06:39:55.605Z,20.40
2022-12-18T06:42:23.132Z,19.48
2022-12-18T06:44:49.485Z,20.98
2022-12-18T06:47:15.824Z,17.05
2022-12-18T06:49:42.162Z,19.98
2022-12-18T06:52:08.553Z,19.25
2022-12-18T06:54:35.029Z,18.13
2022-12-18T06:57:01.337Z,19.35
2022-12-18T06:59:27.749Z,19.15
2022-12-18T07:01:54.741Z,18.88
2022-12-18T07:04:21.195Z,24.48
2022-12-18T07:06:47.630Z,19.05
2022-12-18T07:09:13.929Z,17.70
2022-12-18T07:11:40.265Z,18.17
2022-12-18T07:14:06.631Z,21.00
2022-12-18T07:16:32.956Z,18.27
2022-12-18T07:18:59.323Z,21.40
2022-12-18T07:21:26.194Z,18.33
2022-12-18T07:23:53.222Z,20.40
2022-12-18T07:26:21.696Z,18.35
2022-12-18T07:28:48.898Z,20.95
2022-12-18T07:31:21.837Z,16.98
2022-12-18T07:33:49.052Z,16.98
2022-12-18T07:36:15.692Z,15.93
2022-12-18T07:38:42.581Z,19.60
2022-12-18T07:41:12.321Z,16.38
2022-12-18T07:43:39.859Z,17.10
2022-12-18T07:46:07.894Z,19.77
2022-12-18T07:48:34.490Z,17.77
2022-12-18T07:51:05.920Z,21.48
2022-12-18T07:53:33.666Z,20.15
2022-12-18T07:56:26.545Z,17.75
2022-12-18T07:58:49.337Z,15.20
2022-12-18T08:01:15.892Z,21.73
2022-12-18T08:03:42.664Z,17.10
2022-12-18T08:06:10.708Z,18.15
2022-12-18T08:08:37.898Z,16.53
2022-12-18T08:11:04.298Z,16.48
2022-12-18T08:13:30.925Z,14.85
2022-12-18T08:16:06.579Z,18.98
2022-12-18T08:18:34.617Z,14.45
2022-12-18T08:21:12.089Z,16.15
2022-12-18T08:23:42.645Z,19.15
2022-12-18T08:26:11.230Z,16.38
2022-12-18T08:28:37.737Z,16.23
2022-12-18T08:31:04.858Z,16.52
2022-12-18T08:33:31.570Z,17.20
2022-12-18T08:35:59.413Z,19.80
2022-12-18T08:38:25.759Z,17.80
2022-12-18T08:41:00.491Z,17.42
2022-12-18T08:43:45.734Z,17.10
2022-12-18T08:46:13.190Z,15.45
2022-12-18T08:48:39.611Z,19.55
2022-12-18T08:51:06.085Z,16.08
2022-12-18T08:53:35.655Z,11.68
2022-12-18T08:56:02.698Z,17.33
2022-12-18T08:58:29.073Z,14.23
2022-12-18T09:00:55.484Z,15.77
2022-12-18T09:03:23.419Z,14.25
2022-12-18T09:05:49.962Z,15.75
2022-12-18T09:08:16.315Z,17.00
2022-12-18T09:10:44.356Z,13.18
2022-12-18T09:13:12.031Z,19.02
2022-12-18T09:15:54.576Z,14.80
2022-12-18T09:18:22.892Z,18.48
2022-12-18T09:20:49.267Z,14.95
2022-12-18T09:23:15.718Z,15.13
2022-12-18T09:25:42.054Z,16.45
2022-12-18T09:28:16.237Z,11.82
2022-12-18T09:30:45.624Z,16.20
2022-12-18T09:33:12.063Z,14.10
2022-12-18T09:35:41.489Z,14.10
2022-12-18T09:38:09.665Z,14.55
2022-12-18T09:40:42.272Z,13.07
2022-12-18T09:43:18.967Z,14.02
2022-12-18T09:45:50.251Z,12.77
2022-12-18T09:48:27.105Z,12.60
2022-12-18T09:50:59.389Z,13.77
2022-12-18T09:53:31.122Z,12.52
2022-12-18T09:55:58.448Z,13.55
2022-12-18T09:58:45.265Z,16.25
2022-12-18T10:01:19.235Z,17.38
2022-12-18T10:03:45.740Z,13.43
2022-12-18T10:06:17.301Z,14.32
2022-12-18T10:08:49.985Z,14.63
2022-12-18T10:11:46.695Z,18.45
2022-12-18T10:14:24.306Z,15.57
2022-12-18T10:17:12.881Z,16.17
2022-12-18T10:19:49.965Z,14.88
2022-12-18T10:22:22.167Z,17.52
2022-12-18T10:25:02.475Z,19.77
2022-12-18T10:27:29.762Z,14.57
2022-12-18T10:29:56.889Z,12.27
2022-12-18T10:32:28.724Z,15.40
2022-12-18T10:35:00.551Z,14.32
2022-12-18T10:37:30.462Z,12.50
2022-12-18T10:40:09.183Z,13.00
2022-12-18T10:45:05.071Z,14.70
2022-12-18T10:47:31.495Z,12.32
2022-12-18T10:49:57.949Z,13.80
2022-12-18T10:52:26.651Z,13.13
2022-12-18T10:54:57.893Z,14.60
2022-12-18T10:57:26.982Z,14.80
2022-12-18T10:59:56.127Z,15.70
2022-12-18T11:02:40.566Z,13.57
2022-12-18T11:05:30.002Z,14.80
2022-12-18T11:07:57.639Z,12.65
2022-12-18T11:10:29.709Z,14.20
2022-12-18T11:12:56.235Z,14.95
2022-12-18T11:15:31.475Z,15.57
2022-12-18T11:17:57.871Z,15.63
2022-12-18T11:20:30.591Z,13.05
2022-12-18T11:23:00.292Z,14.50
2022-12-18T11:25:35.341Z,14.43
2022-12-18T11:28:06.130Z,15.75
2022-12-18T11:30:37.719Z,14.13
2022-12-18T11:33:08.029Z,15.05
2022-12-18T11:36:04.668Z,14.05
2022-12-18T11:38:35.545Z,15.55
2022-12-18T11:41:17.340Z,15.48
2022-12-18T11:43:53.926Z,16.15
2022-12-18T11:46:31.807Z,15.15
2022-12-18T11:49:23.413Z,17.13
2022-12-18T11:51:56.418Z,16.17
2022-12-18T11:54:22.837Z,16.23
2022-12-18T11:56:54.156Z,15.88
2022-12-18T11:59:40.492Z,14.27
2022-12-18T12:02:34.679Z,16.00
2022-12-18T12:05:32.544Z,18.73
2022-12-18T12:08:19.712Z,16.63
2022-12-18T12:11:11.124Z,15.38
2022-12-18T12:14:06.554Z,15.13
2022-12-18T12:16:44.488Z,16.52
2022-12-18T12:19:41.819Z,13.68
2022-12-18T12:22:35.935Z,15.52
2022-12-18T12:25:21.768Z,21.33
2022-12-18T12:28:07.200Z,19.38
2022-12-18T12:30:51.065Z,16.77
2022-12-18T12:33:38.481Z,16.23
2022-12-18T12:36:27.533Z,14.43
2022-12-18T12:38:58.561Z,16.27
2022-12-18T12:41:54.758Z,22.40
2022-12-18T12:44:27.540Z,15.68
2022-12-18T12:47:00.295Z,21.35
2022-12-18T12:49:32.230Z,16.13
2022-12-18T12:52:11.869Z,19.27
2022-12-18T12:54:38.750Z,15.80
2022-12-18T12:57:28.074Z,16.77
2022-12-18T13:00:12.217Z,17.00
2022-12-18T13:02:53.984Z,15.93
2022-12-18T13:05:31.066Z,15.90
2022-12-18T13:08:04.552Z,17.02
2022-12-18T13:10:37.492Z,15.73
2022-12-18T13:13:09.123Z,21.70
2022-12-18T13:15:40.166Z,16.27
2022-12-18T13:18:09.859Z,20.25
2022-12-18T13:20:42.552Z,16.67
2022-12-18T13:23:25.419Z,17.38
2022-12-18T13:26:07.488Z,16.13
2022-12-18T13:28:33.892Z,17.08
2022-12-18T13:31:02.348Z,18.05
2022-12-18T13:34:23.968Z,16.05
2022-12-18T13:36:34.821Z,18.35
2022-12-18T13:39:35.454Z,17.38
2022-12-18T13:42:05.298Z,14.82
2022-12-18T13:44:43.148Z,16.85
2022-12-18T13:47:31.998Z,14.98
2022-12-18T13:52:37.162Z,17.08
2022-12-18T13:55:15.550Z,19.48
2022-12-18T13:57:42.220Z,17.08
2022-12-18T14:00:25.811Z,17.58
2022-12-18T14:02:52.940Z,16.63
2022-12-18T14:05:35.205Z,23.38
2022-12-18T14:08:10.985Z,16.88
2022-12-18T14:10:49.086Z,22.67
2022-12-18T14:15:49.745Z,20.60
2022-12-18T14:18:48.853Z,18.45
2022-12-18T14:21:22.475Z,19.92
2022-12-18T14:23:49.256Z,18.45
2022-12-18T14:26:30.679Z,18.73
2022-12-18T14:28:58.060Z,19.20
2022-12-18T14:31:30.336Z,17.42
2022-12-18T14:33:56.871Z,17.55
2022-12-18T14:36:26.295Z,19.90
2022-12-18T14:38:57.970Z,17.00
2022-12-18T14:41:26.014Z,17.63
2022-12-18T14:43:54.826Z,19.42
2022-12-18T14:49:33.748Z,17.95
2022-12-18T14:52:02.209Z,23.77
2022-12-18T14:57:24.245Z,22.98
2022-12-18T14:59:51.472Z,21.15
2022-12-18T15:02:25.147Z,22.27
2022-12-18T15:05:14.693Z,17.20
2022-12-18T15:07:50.352Z,19.25
2022-12-18T15:10:28.775Z,20.60
2022-12-18T15:12:57.865Z,20.30
2022-12-18T15:15:44.330Z,19.33
2022-12-18T15:18:11.367Z,20.25
2022-12-18T15:20:59.975Z,20.70
2022-12-18T15:26:09.959Z,19.60
2022-12-18T15:28:46.091Z,20.30
2022-12-18T15:31:13.017Z,21.33
2022-12-18T15:34:03.999Z,21.95
2022-12-18T15:36:31.273Z,16.85
2022-12-18T15:39:04.704Z,19.45
2022-12-18T15:41:36.495Z,18.83
2022-12-18T15:44:16.633Z,19.05
2022-12-18T15:46:43.162Z,20.92
2022-12-18T15:49:09.590Z,21.02
2022-12-18T15:51:38.210Z,24.50
2022-12-18T15:54:10.349Z,23.02
2022-12-18T15:56:55.438Z,18.85
2022-12-18T15:59:23.707Z,21.45
2022-12-18T16:01:52.366Z,20.77
2022-12-18T16:04:21.501Z,20.75
2022-12-18T16:07:13.737Z,23.02
2022-12-18T16:09:36.356Z,23.33
2022-12-18T16:12:03.420Z,21.05
2022-12-18T16:14:31.608Z,23.75
2022-12-18T16:17:03.534Z,22.23
2022-12-18T16:19:30.419Z,22.60
2022-12-18T16:21:58.659Z,25.02
2022-12-18T16:24:27.485Z,26.95
2022-12-18T16:29:25.650Z,23.17
2022-12-18T16:31:52.966Z,34.00
2022-12-18T16:34:28.683Z,21.17
2022-12-18T16:37:05.273Z,22.17
2022-12-18T16:39:34.088Z,27.60
2022-12-18T16:42:03.884Z,25.88
2022-12-18T16:44:32.898Z,23.67
2022-12-18T16:47:02.627Z,24.35
2022-12-18T16:49:29.500Z,26.60
2022-12-18T16:51:55.904Z,22.48
2022-12-18T16:54:22.277Z,25.73
2022-12-18T16:56:50.297Z,26.35
2022-12-18T16:59:16.592Z,26.83
2022-12-18T17:01:43.069Z,25.80
2022-12-18T17:04:09.817Z,21.38
2022-12-18T17:06:41.175Z,27.90
2022-12-18T17:09:12.068Z,26.25
2022-12-18T17:11:38.448Z,23.98
2022-12-18T17:14:08.757Z,25.08
2022-12-18T17:16:35.680Z,27.73
2022-12-18T17:19:02.377Z,27.30
2022-12-18T17:21:28.987Z,27.27
2022-12-18T17:23:55.341Z,26.92
2022-12-18T17:26:21.708Z,29.42
2022-12-18T17:28:48.114Z,26.50
2022-12-18T17:31:21.163Z,26.50
2022-12-18T17:33:48.468Z,24.80
2022-12-18T17:36:16.019Z,27.95
2022-12-18T17:38:43.317Z,28.65
2022-12-18T17:41:11.383Z,23.75
2022-12-18T17:43:45.876Z,27.23
2022-12-18T17:46:14.485Z,22.95
2022-12-18T17:48:41.374Z,25.60
2022-12-18T17:51:09.742Z,27.35
2022-12-18T17:53:41.763Z,24.58
2022-12-18T17:56:12.593Z,26.83
2022-12-18T17:58:39.761Z,24.98
2022-12-18T18:01:06.985Z,27.98
2022-12-18T18:03:34.581Z,26.45
2022-12-18T18:06:02.452Z,26.70
2022-12-18T18:08:29.364Z,26.25
2022-12-18T18:11:16.059Z,29.83
2022-12-18T18:14:00.732Z,29.05
2022-12-18T18:16:34.015Z,28.60
2022-12-18T18:19:02.762Z,28.55
2022-12-18T18:21:30.415Z,27.05
2022-12-18T18:24:04.280Z,32.20
2022-12-18T18:26:32.879Z,25.75
2022-12-18T18:29:00.550Z,26.85
2022-12-18T18:31:30.663Z,27.90
2022-12-18T18:33:57.447Z,30.92
2022-12-18T18:36:24.226Z,30.88
2022-12-18T18:38:51.759Z,28.65
2022-12-18T18:41:19.543Z,31.27
2022-12-18T18:43:46.178Z,31.88
2022-12-18T18:46:14.486Z,24.60
2022-12-18T18:48:41.761Z,26.55
2022-12-18T18:51:21.455Z,28.85
2022-12-18T18:53:49.986Z,28.60
2022-12-18T18:59:06.928Z,28.38
2022-12-18T19:01:33.426Z,30.13
2022-12-18T19:04:00.864Z,28.13
2022-12-18T19:06:28.958Z,27.08
2022-12-18T19:08:56.825Z,27.65
2022-12-18T19:11:47.967Z,27.42
2022-12-18T19:14:15.693Z,27.38
2022-12-18T19:16:43.653Z,28.17
2022-12-18T19:19:10.392Z,26.50
2022-12-18T19:21:38.182Z,27.17
2022-12-18T19:24:05.219Z,27.00
2022-12-18T19:26:31.776Z,28.23
2022-12-18T19:29:06.475Z,28.13
2022-12-18T19:31:36.013Z,26.35
2022-12-18T19:34:04.230Z,30.92
2022-12-18T19:36:31.076Z,26.70
2022-12-18T19:39:02.702Z,32.63
2022-12-18T19:41:31.622Z,28.90
2022-12-18T19:43:59.629Z,30.13
2022-12-18T19:46:26.117Z,28.95
2022-12-18T19:48:55.759Z,28.58
2022-12-18T19:51:25.086Z,33.17
2022-12-18T19:53:58.216Z,25.40
2022-12-18T19:56:27.463Z,30.17
2022-12-18T19:58:54.919Z,28.65
2022-12-18T20:01:23.771Z,26.63
2022-12-18T20:03:53.798Z,31.30
2022-12-18T20:06:28.391Z,35.95
2022-12-18T20:08:59.454Z,30.92
2022-12-18T20:11:27.390Z,30.30
2022-12-18T20:13:53.883Z,29.42
2022-12-18T20:16:20.599Z,30.13
2022-12-18T20:18:49.239Z,30.60
2022-12-18T20:21:16.004Z,30.73
2022-12-18T20:23:43.085Z,31.58
2022-12-18T20:26:10.093Z,30.35
2022-12-18T20:28:36.525Z,32.80
2022-12-18T20:31:08.163Z,31.75
2022-12-18T20:33:36.913Z,31.27
2022-12-18T20:36:06.824Z,34.72
2022-12-18T20:38:35.404Z,34.22
2022-12-18T20:41:06.423Z,33.80
2022-12-18T20:43:32.868Z,29.50
2022-12-18T20:46:07.423Z,31.75
2022-12-18T20:48:33.884Z,35.17
2022-12-18T20:51:02.103Z,31.17
2022-12-18T20:53:30.833Z,32.05
2022-12-18T20:55:57.488Z,31.60
2022-12-18T20:58:25.088Z,37.50
2022-12-18T21:01:03.763Z,30.38
2022-12-18T21:05:56.538Z,32.50
2022-12-18T21:08:22.976Z,32.63
2022-12-18T21:10:49.320Z,34.08
2022-12-18T21:13:16.390Z,36.25
2022-12-18T21:15:43.539Z,30.38
2022-12-18T21:18:09.933Z,32.58
2022-12-18T21:20:36.460Z,36.72
2022-12-18T21:23:16.000Z,34.38
2022-12-18T21:25:43.252Z,31.17
2022-12-18T21:28:09.583Z,33.67
2022-12-18T21:30:36.032Z,34.88
2022-12-18T21:33:02.430Z,36.25
2022-12-18T21:35:29.276Z,31.77
2022-12-18T21:37:58.689Z,35.55
2022-12-18T21:40:25.124Z,35.88
2022-12-18T21:43:10.749Z,32.60
2022-12-18T21:45:41.458Z,33.63
2022-12-18T21:48:07.881Z,36.60
2022-12-18T21:50:34.252Z,36.38
2022-12-18T21:53:00.659Z,32.33
2022-12-18T21:55:26.957Z,32.13
2022-12-18T21:57:54.033Z,34.45
2022-12-18T22:00:20.576Z,36.85
2022-12-18T22:02:48.577Z,40.28
2022-12-18T22:05:33.733Z,35.95
2022-12-18T22:08:01.369Z,36.45
2022-12-18T22:10:27.683Z,32.58
2022-12-18T22:12:55.023Z,38.25
2022-12-18T22:15:22.075Z,35.08
2022-12-18T22:17:50.095Z,36.35
2022-12-18T22:20:16.850Z,34.67
2022-12-18T22:22:43.267Z,39.40
2022-12-18T22:25:10.608Z,36.53
2022-12-18T22:27:37.614Z,39.92
2022-12-18T22:30:05.191Z,35.67
2022-12-18T22:32:36.055Z,37.67
2022-12-18T22:35:09.218Z,36.05
2022-12-18T22:37:39.200Z,35.70
2022-12-18T22:40:07.623Z,35.08
2022-12-18T22:42:35.049Z,41.67
2022-12-18T22:45:01.444Z,33.35
2022-12-18T22:47:29.971Z,34.03
2022-12-18T22:49:57.357Z,37.55
2022-12-18T22:52:24.850Z,37.08
2022-12-18T22:54:53.711Z,40.05
2022-12-18T22:59:47.907Z,41.92
2022-12-18T23:02:14.381Z,38.33
2022-12-18T23:04:40.831Z,40.33
2022-12-18T23:07:07.302Z,40.08
2022-12-18T23:09:33.765Z,38.05
2022-12-18T23:12:01.085Z,37.10
2022-12-18T23:14:28.521Z,38.58
2022-12-18T23:16:54.859Z,39.90
2022-12-18T23:19:22.529Z,38.10
2022-12-18T23:21:50.216Z,38.38
2022-12-18T23:24:16.621Z,41.35
2022-12-18T23:26:43.178Z,36.28
2022-12-18T23:29:09.679Z,42.15
2022-12-18T23:31:38.416Z,37.80
2022-12-18T23:36:35.238Z,37.65
2022-12-18T23:39:12.605Z,39.88
2022-12-18T23:41:56.185Z,37.05
2022-12-18T23:44:22.560Z,44.72
2022-12-18T23:46:48.935Z,39.15
2022-12-18T23:49:15.423Z,40.90
2022-12-18T23:51:41.758Z,39.25
2022-12-18T23:54:10.191Z,39.55
2022-12-18T23:56:36.526Z,36.20
2022-12-18T23:59:02.909Z,40.00
